Time;durP1;ratioP1;P1;durP2;ratioP2;P2;SDS_P1;SDS_P2;PMS_P1;PMS_P2;Temp;Humidity;BMP_temperature;BMP_pressure;BME280_temperature;BME280_humidity;BME280_pressure;Samples;Min_cycle;Max_cycle;Signal;HPM_P1;HPM_P2
2022/09/28 00:00:31;;;;;;;0.60;0.60;;;;;;;7.98;92.45;98223.72;10499894;28;20079;-71
2022/09/28 00:05:33;;;;;;;1.10;0.55;;;;;;;8.08;90.75;98225.78;10499736;28;20071;-73
2022/09/28 00:10:35;;;;;;;0.80;0.60;;;;;;;8.12;91.12;98217.78;10498367;28;20123;-72
2022/09/28 00:15:37;;;;;;;0.50;0.45;;;;;;;8.28;89.11;98216.09;10498669;28;20386;-72
2022/09/28 00:20:38;;;;;;;1.33;0.40;;;;;;;8.33;87.86;98206.22;10498748;28;20082;-72
2022/09/28 00:25:40;;;;;;;0.40;0.38;;;;;;;8.26;88.23;98210.91;10498637;28;20037;-71
2022/09/28 00:30:41;;;;;;;0.52;0.43;;;;;;;8.20;88.32;98206.00;10498068;28;20495;-72
2022/09/28 00:35:43;;;;;;;0.30;0.30;;;;;;;8.28;87.58;98195.16;10480744;28;20445;-71
2022/09/28 00:40:44;;;;;;;0.30;0.30;;;;;;;8.27;87.22;98191.66;10497754;28;20490;-73
2022/09/28 00:45:55;;;;;;;0.75;0.40;;;;;;;8.17;88.18;98189.63;10479903;28;20167;-71
2022/09/28 00:50:59;;;;;;;1.35;0.32;;;;;;;8.01;89.97;98189.53;10481459;28;20107;-72
2022/09/28 00:56:06;;;;;;;0.50;0.40;;;;;;;7.99;90.40;98181.78;10479617;28;20045;-72
2022/09/28 01:01:08;;;;;;;;;;;;;;;8.00;89.27;98186.06;10481531;28;20482;-72
2022/09/28 01:06:13;;;;;;;0.40;0.40;;;;;;;7.93;90.44;98179.47;10479670;28;19924;-72
2022/09/28 01:11:17;;;;;;;0.43;0.40;;;;;;;7.75;92.69;98169.94;10479890;28;20048;-72
2022/09/28 01:16:38;;;;;;;1.00;0.50;;;;;;;7.61;93.98;98168.00;10480929;28;20421;-72
2022/09/28 01:22:17;;;;;;;1.90;0.30;;;;;;;7.54;93.26;98164.84;10484279;28;20052;-72
2022/09/28 01:27:33;;;;;;;0.77;0.50;;;;;;;7.55;93.93;98166.53;10487668;28;20498;-72
2022/09/28 01:32:54;;;;;;;0.30;0.30;;;;;;;7.55;93.91;98165.69;10486797;28;20075;-72
2022/09/28 01:38:03;;;;;;;0.30;0.30;;;;;;;7.48;94.54;98156.44;10505516;28;20045;-72
2022/09/28 01:43:13;;;;;;;1.88;0.45;;;;;;;7.39;95.08;98157.75;10487967;28;20044;-72
2022/09/28 01:48:34;;;;;;;0.60;0.60;;;;;;;7.37;95.75;98151.75;10471050;28;20041;-71
2022/09/28 01:53:50;;;;;;;0.75;0.45;;;;;;;7.37;96.71;98154.38;10486223;28;20036;-71
2022/09/28 01:59:03;;;;;;;0.30;0.30;;;;;;;7.37;97.08;98149.13;10469648;28;20051;-72
2022/09/28 02:04:16;;;;;;;1.20;0.40;;;;;;;7.37;98.35;98145.69;10504344;28;20037;-71
2022/09/28 02:09:28;;;;;;;0.75;0.60;;;;;;;7.37;98.67;98146.53;10485561;28;20045;-71
2022/09/28 02:14:38;;;;;;;0.50;0.43;;;;;;;7.42;99.19;98147.16;10469160;28;20044;-71
2022/09/28 02:19:40;;;;;;;0.50;0.40;;;;;;;7.44;98.42;98142.72;10485205;28;20498;-72
2022/09/28 02:24:56;;;;;;;0.55;0.50;;;;;;;7.40;99.38;98143.78;10485531;28;20090;-72
2022/09/28 02:30:01;;;;;;;0.95;0.52;;;;;;;7.36;100.00;98147.47;10484510;28;20465;-72
2022/09/28 02:35:03;;;;;;;0.60;0.50;;;;;;;7.37;100.00;98138.69;10483698;28;20140;-72
2022/09/28 02:40:30;;;;;;;0.68;0.68;;;;;;;7.46;99.81;98133.00;10523374;22;20044;-68
2022/09/28 02:45:50;;;;;;;0.82;0.80;;;;;;;7.77;97.86;98124.47;10543867;28;20055;-69
2022/09/28 02:51:05;;;;;;;1.52;0.70;;;;;;;7.76;97.42;98112.31;10524956;28;20051;-68
2022/09/28 02:56:23;;;;;;;1.00;0.70;;;;;;;7.64;97.97;98115.56;10524337;28;20461;-69
2022/09/28 03:01:25;;;;;;;1.23;0.80;;;;;;;7.47;98.56;98113.78;10524143;28;20202;-68
2022/09/28 03:06:39;;;;;;;3.92;0.90;;;;;;;7.36;98.95;98108.25;10507770;28;20090;-68
2022/09/28 03:12:02;;;;;;;1.83;1.00;;;;;;;7.15;99.70;98102.31;10541902;28;20086;-68
2022/09/28 03:17:04;;;;;;;5.88;0.90;;;;;;;7.19;99.49;98098.63;10523376;28;20040;-68
2022/09/28 03:22:25;;;;;;;1.55;0.90;;;;;;;6.99;100.00;98103.94;10454696;28;20053;-68
2022/09/28 03:27:27;;;;;;;2.35;1.25;;;;;;;6.88;100.00;98096.63;10437211;28;20072;-68
2022/09/28 03:32:29;;;;;;;3.63;1.60;;;;;;;6.80;100.00;98099.59;10454270;28;20049;-69
2022/09/28 03:37:31;;;;;;;1.95;1.45;;;;;;;7.01;100.00;98091.69;10453253;28;20044;-69
2022/09/28 03:42:35;;;;;;;9.27;2.00;;;;;;;7.02;100.00;98096.81;10438161;28;20111;-69
2022/09/28 03:47:36;;;;;;;2.08;1.80;;;;;;;7.19;100.00;98100.38;10453107;28;20503;-69
2022/09/28 03:52:38;;;;;;;2.58;1.70;;;;;;;7.32;100.00;98104.09;10505260;28;20070;-69
2022/09/28 03:57:39;;;;;;;2.05;1.60;;;;;;;7.35;100.00;98101.34;10522144;28;20405;-69
2022/09/28 04:02:41;;;;;;;1.77;1.45;;;;;;;7.45;100.00;98083.41;10521761;28;20048;-69
2022/09/28 04:07:43;;;;;;;2.55;1.55;;;;;;;7.80;96.84;98072.00;10539761;28;20455;-69
2022/09/28 04:12:45;;;;;;;1.80;1.45;;;;;;;7.81;96.34;98052.78;10505846;28;20051;-69
2022/09/28 04:17:48;;;;;;;2.67;1.60;;;;;;;7.77;96.82;98045.16;10521353;28;20044;-69
2022/09/28 04:23:07;;;;;;;2.55;1.52;;;;;;;7.72;97.26;98057.63;10523189;28;20050;-69
2022/09/28 04:33:32;;;;;;;1.55;1.20;;;;;;;7.63;97.27;98039.81;10503168;28;20110;-69
2022/09/28 04:38:34;;;;;;;2.58;1.80;;;;;;;7.43;99.85;98046.03;10522429;28;20048;-69
2022/09/28 04:43:54;;;;;;;1.52;1.40;;;;;;;7.28;100.00;98032.84;10521866;28;20044;-69
2022/09/28 04:48:58;;;;;;;3.10;1.40;;;;;;;7.28;100.00;98017.16;10523019;28;20051;-69
2022/09/28 04:54:17;;;;;;;1.33;1.23;;;;;;;7.25;100.00;98009.47;10524286;28;20413;-69
2022/09/28 04:59:19;;;;;;;1.60;1.35;;;;;;;7.25;100.00;98001.63;10531743;28;20133;-69
2022/09/28 05:04:21;;;;;;;3.03;1.65;;;;;;;7.57;99.79;98001.75;10529605;28;20040;-70
2022/09/28 05:09:45;;;;;;;1.85;1.25;;;;;;;7.34;100.00;97990.69;10548139;28;20056;-69
2022/09/28 05:14:48;;;;;;;1.80;1.35;;;;;;;7.43;99.51;97999.81;10529327;28;20040;-69
2022/09/28 05:19:50;;;;;;;1.58;1.10;;;;;;;7.29;100.00;97991.84;10528752;28;20052;-69
2022/09/28 05:24:53;;;;;;;2.88;1.77;;;;;;;7.25;100.00;98000.78;10529746;28;20036;-69
2022/09/28 05:29:55;;;;;;;2.97;1.63;;;;;;;7.38;100.00;97985.31;10512058;28;20044;-69
2022/09/28 05:35:17;;;;;;;1.83;1.35;;;;;;;7.30;100.00;97985.69;10546093;28;20040;-69
2022/09/28 05:40:20;;;;;;;1.42;1.33;;;;;;;7.22;100.00;97974.81;10527731;28;20048;-69
2022/09/28 05:45:22;;;;;;;2.05;1.70;;;;;;;7.22;100.00;97969.59;10527430;28;20106;-69
2022/09/28 05:50:24;;;;;;;4.13;1.95;;;;;;;7.38;100.00;97967.88;10527515;28;20497;-69
2022/09/28 05:55:26;;;;;;;1.58;1.33;;;;;;;7.56;100.00;97958.22;10527687;28;20044;-69
2022/09/28 06:00:29;;;;;;;2.50;1.58;;;;;;;7.60;100.00;97949.28;10528482;28;20048;-69
2022/09/28 06:05:34;;;;;;;4.15;1.52;;;;;;;7.67;100.00;97926.28;10526018;28;20044;-69
2022/09/28 06:10:36;;;;;;;2.35;1.27;;;;;;;7.84;98.32;97928.84;10546715;28;20048;-69
2022/09/28 06:15:41;;;;;;;2.08;1.67;;;;;;;7.95;97.53;97910.78;10545637;28;20157;-69
2022/09/28 06:20:45;;;;;;;2.60;1.77;;;;;;;7.93;98.75;97903.94;10528603;28;20086;-70
2022/09/28 06:25:48;;;;;;;2.72;2.25;;;;;;;7.90;99.48;97898.88;10545305;28;20055;-69
2022/09/28 06:30:50;;;;;;;2.33;2.10;;;;;;;8.03;98.72;97903.34;10526060;28;20044;-69
2022/09/28 06:35:53;;;;;;;3.03;2.42;;;;;;;8.29;95.09;97906.28;10544882;28;20050;-69
2022/09/28 06:40:56;;;;;;;4.47;3.83;;;;;;;8.59;90.22;97906.34;10509628;28;20390;-69
2022/09/28 06:45:59;;;;;;;4.65;4.10;;;;;;;8.57;92.57;97908.19;10525340;28;20040;-69
2022/09/28 06:51:20;;;;;;;7.55;5.57;;;;;;;8.90;89.05;97910.66;10544632;28;20052;-69
2022/09/28 06:56:45;;;;;;;7.10;6.40;;;;;;;8.86;89.37;97898.66;10523710;28;20051;-69
2022/09/28 07:01:47;;;;;;;7.63;6.90;;;;;;;8.95;88.53;97897.28;10525611;28;20071;-70
2022/09/28 07:07:14;;;;;;;8.02;6.13;;;;;;;9.08;88.25;97898.25;10519468;28;20108;-69
2022/09/28 07:12:39;;;;;;;7.25;6.72;;;;;;;9.22;86.38;97905.28;10543139;28;20527;-69
2022/09/28 07:18:02;;;;;;;6.82;6.30;;;;;;;9.04;88.06;97908.06;10524530;28;20117;-69
2022/09/28 07:23:09;;;;;;;8.18;7.40;;;;;;;8.91;91.27;97920.19;10504854;28;20048;-70
2022/09/28 07:28:55;;;;;;;8.25;7.55;;;;;;;8.95;90.52;97941.81;10404999;28;20063;-70
2022/09/28 07:34:21;;;;;;;7.18;6.65;;;;;;;8.83;92.63;97927.66;10533825;28;20059;-69
2022/09/28 07:45:08;;;;;;;9.63;8.88;;;;;;;8.78;96.52;97909.59;10523203;28;20052;-69
2022/09/28 07:50:10;;;;;;;10.45;9.55;;;;;;;8.94;97.08;97920.03;10523239;28;20043;-69
2022/09/28 07:55:32;;;;;;;9.98;9.18;;;;;;;9.16;93.32;97919.56;10540444;28;20102;-69
2022/09/28 08:00:53;;;;;;;10.52;9.73;;;;;;;9.18;94.63;97919.50;10522969;28;20047;-69
2022/09/28 08:05:59;;;;;;;11.55;10.65;;;;;;;9.15;98.25;97925.75;10522632;28;20127;-69
2022/09/28 08:11:02;;;;;;;11.88;10.88;;;;;;;9.09;100.00;97931.38;10541887;28;20044;-69
2022/09/28 08:16:22;;;;;;;12.25;11.15;;;;;;;9.36;99.20;97931.50;10541542;28;20036;-69
2022/09/28 08:21:43;;;;;;;11.52;10.45;;;;;;;9.49;96.06;97927.19;10522569;28;20109;-68
2022/09/28 08:26:46;;;;;;;9.40;8.60;;;;;;;9.53;93.99;97939.19;10525079;28;20052;-68
2022/09/28 08:31:50;;;;;;;8.98;8.38;;;;;;;9.45;93.78;97935.34;10532837;28;20123;-68
2022/09/28 08:37:12;;;;;;;4.93;4.32;;;;;;;9.12;88.94;97938.19;10554233;28;20044;-68
2022/09/28 08:42:33;;;;;;;3.13;2.85;;;;;;;9.06;89.95;97949.88;10576576;22;20051;-69
2022/09/28 08:53:52;;;;;;;7.30;4.82;;;;;;;8.75;95.85;97937.72;10554912;28;20080;-69
2022/09/28 08:59:03;;;;;;;1.52;1.30;;;;;;;8.94;94.49;97938.38;10536631;28;20048;-70
2022/09/28 09:04:06;;;;;;;2.17;1.90;;;;;;;8.96;96.65;97940.88;10536040;28;20036;-70
2022/09/28 09:09:43;;;;;;;1.60;1.15;;;;;;;9.02;95.14;97943.13;10537202;28;20141;-70
2022/09/28 09:14:56;;;;;;;0.75;0.57;;;;;;;8.93;94.54;97947.13;10555674;28;20036;-69
2022/09/28 09:20:11;;;;;;;1.13;0.90;;;;;;;8.95;97.63;97928.72;10536320;28;20420;-69
2022/09/28 09:25:41;;;;;;;1.23;1.13;;;;;;;8.88;95.46;97922.13;10536197;28;20047;-69
2022/09/28 09:31:07;;;;;;;2.17;1.08;;;;;;;8.96;97.11;97926.00;10536094;28;20485;-69
2022/09/28 09:36:49;;;;;;;1.70;1.20;;;;;;;8.79;98.04;97919.13;10536687;28;20058;-69
2022/09/28 09:42:28;;;;;;;1.40;1.30;;;;;;;8.90;100.00;97923.75;10516412;28;20134;-68
2022/09/28 09:47:55;;;;;;;1.48;1.38;;;;;;;8.89;100.00;97918.59;10507553;28;20049;-69
2022/09/28 09:53:24;;;;;;;1.95;1.52;;;;;;;8.94;100.00;97917.41;10488110;28;20131;-69
2022/09/28 09:58:35;;;;;;;2.58;1.58;;;;;;;8.99;100.00;97911.88;10511468;28;20051;-69
2022/09/28 10:03:53;;;;;;;;;;;;;;;8.74;100.00;97915.94;10522964;28;20108;-70
2022/09/28 10:09:23;;;;;;;4.85;1.20;;;;;;;8.80;100.00;97906.88;10522560;28;19967;-69
2022/09/28 10:14:25;;;;;;;1.67;1.17;;;;;;;8.84;98.36;97911.00;10512799;28;20062;-69
2022/09/28 10:19:35;;;;;;;1.65;0.95;;;;;;;8.69;100.00;97904.88;10552298;28;20036;-70
2022/09/28 10:25:17;;;;;;;1.67;1.00;;;;;;;8.97;100.00;97904.09;10542072;28;20032;-69
2022/09/28 10:30:22;;;;;;;1.60;1.00;;;;;;;9.14;100.00;97897.03;10546031;28;20467;-69
2022/09/28 10:35:28;;;;;;;1.23;1.00;;;;;;;9.49;99.70;97887.00;10527505;28;20048;-69
2022/09/28 10:40:45;;;;;;;1.52;0.90;;;;;;;9.40;98.80;97885.78;10528657;28;20119;-68
2022/09/28 10:46:08;;;;;;;2.15;1.13;;;;;;;9.38;93.43;97881.56;10528762;28;20452;-68
2022/09/28 10:51:11;;;;;;;1.50;1.25;;;;;;;9.22;98.36;97887.75;10526527;28;20054;-69
2022/09/28 10:56:20;;;;;;;2.10;1.10;;;;;;;9.38;99.65;97878.94;10525622;28;20452;-69
2022/09/28 11:01:32;;;;;;;2.03;1.50;;;;;;;9.60;98.46;97882.78;10543304;28;20055;-70
2022/09/28 11:06:37;;;;;;;2.30;1.40;;;;;;;9.30;98.56;97889.94;10528265;28;20048;-69
2022/09/28 11:11:41;;;;;;;1.42;1.20;;;;;;;9.53;96.65;97905.09;10526806;28;20043;-69
2022/09/28 11:16:43;;;;;;;2.70;1.92;;;;;;;9.11;100.00;97892.78;10525020;28;20040;-69
2022/09/28 11:21:46;;;;;;;1.98;1.77;;;;;;;9.33;100.00;97876.59;10526280;28;20044;-69
2022/09/28 11:26:51;;;;;;;3.40;2.13;;;;;;;9.37;100.00;97879.91;10527898;28;20093;-69
2022/09/28 11:32:03;;;;;;;2.80;2.60;;;;;;;10.10;100.00;97888.41;10525818;28;20094;-69
2022/09/28 11:37:16;;;;;;;3.30;2.30;;;;;;;10.70;100.00;97885.38;10525548;28;20048;-69
2022/09/28 11:42:43;;;;;;;2.40;2.20;;;;;;;10.97;100.00;97884.47;10524545;28;20062;-69
2022/09/28 11:47:58;;;;;;;1.58;1.48;;;;;;;11.23;96.55;97888.78;10526921;28;20044;-69
2022/09/28 11:53:15;;;;;;;0.93;0.80;;;;;;;11.34;93.52;97895.97;10525764;28;20151;-69
2022/09/28 11:58:33;;;;;;;1.88;0.40;;;;;;;11.80;90.45;97888.31;10525003;28;20452;-69
2022/09/28 12:03:52;;;;;;;0.85;0.50;;;;;;;11.72;87.93;97892.44;10525483;28;20493;-70
2022/09/28 12:09:05;;;;;;;0.85;0.50;;;;;;;11.61;85.96;97907.19;10526644;28;20417;-70
2022/09/28 12:14:43;;;;;;;0.90;0.50;;;;;;;11.28;84.35;97914.78;10531802;28;20044;-69
2022/09/28 12:20:00;;;;;;;0.45;0.45;;;;;;;10.93;88.59;97923.25;10542790;28;20048;-72
2022/09/28 12:25:03;;;;;;;0.63;0.40;;;;;;;11.04;88.74;97923.41;10543037;28;20485;-72
2022/09/28 12:30:18;;;;;;;1.33;0.60;;;;;;;10.89;83.60;97924.44;10542663;28;20048;-72
2022/09/28 12:35:44;;;;;;;0.65;0.63;;;;;;;10.59;90.33;97935.19;10541839;28;20413;-72
2022/09/28 12:40:51;;;;;;;;;;;;;;;10.73;91.50;97932.47;10542238;28;20055;-70
2022/09/28 12:46:04;;;;;;;1.13;0.90;;;;;;;10.81;88.58;97932.81;10540885;28;19920;-70
2022/09/28 12:51:46;;;;;;;0.60;0.60;;;;;;;10.95;85.88;97942.41;10523948;28;20040;-69
2022/09/28 12:57:01;;;;;;;0.38;0.35;;;;;;;10.46;81.76;97943.00;10523376;28;20096;-70
2022/09/28 13:02:26;;;;;;;0.30;0.30;;;;;;;10.30;85.08;97948.38;10526961;28;20051;-70
2022/09/28 13:07:57;;;;;;;0.75;0.40;;;;;;;10.21;88.77;97961.22;10494123;28;20063;-69
2022/09/28 13:13:18;;;;;;;0.60;0.30;;;;;;;10.38;85.93;97962.81;10550134;28;20040;-69
2022/09/28 13:18:56;;;;;;;0.70;0.35;;;;;;;10.51;87.46;97972.44;10549128;28;20048;-69
2022/09/28 13:24:03;;;;;;;0.70;0.20;;;;;;;10.78;83.10;97972.44;10548114;28;20074;-68
2022/09/28 13:29:25;;;;;;;0.80;0.40;;;;;;;10.83;81.34;97980.84;10547415;28;20040;-68
2022/09/28 13:34:32;;;;;;;0.20;0.20;;;;;;;10.91;79.29;97983.00;10530677;28;20375;-69
2022/09/28 13:39:36;;;;;;;0.40;0.30;;;;;;;10.79;79.28;97989.88;10550022;28;20094;-68
2022/09/28 13:44:46;;;;;;;0.55;0.35;;;;;;;10.68;80.32;97999.41;10547425;28;20401;-69
2022/09/28 13:50:13;;;;;;;0.68;0.50;;;;;;;10.28;85.36;98005.44;10548116;28;20051;-69
2022/09/28 13:55:35;;;;;;;1.20;0.50;;;;;;;10.22;87.09;98010.16;10547888;28;20040;-70
2022/09/28 14:00:49;;;;;;;0.82;0.43;;;;;;;10.09;89.33;98008.34;10549361;28;20114;-69
2022/09/28 14:06:10;;;;;;;0.50;0.50;;;;;;;10.02;89.98;98025.38;10528506;28;20070;-69
2022/09/28 14:11:24;;;;;;;0.68;0.50;;;;;;;10.26;84.49;98023.03;10546831;28;20056;-70
2022/09/28 14:16:30;;;;;;;0.77;0.50;;;;;;;10.25;85.36;98034.50;10545806;28;20033;-69
2022/09/28 14:22:11;;;;;;;0.90;0.50;;;;;;;10.31;85.31;98041.13;10547811;28;20093;-69
2022/09/28 14:27:35;;;;;;;0.80;0.60;;;;;;;9.95;87.40;98066.06;10544713;28;20086;-70
2022/09/28 14:32:49;;;;;;;0.70;0.40;;;;;;;9.82;91.14;98065.09;10535262;28;20563;-69
2022/09/28 14:43:23;;;;;;;;;;;;;;;10.38;90.19;98066.09;10521584;22;20497;-72
2022/09/28 14:48:57;;;;;;;0.40;0.40;;;;;;;10.41;85.63;98072.94;10519245;28;19920;-72
2022/09/28 14:54:04;;;;;;;0.30;0.30;;;;;;;10.32;83.51;98069.94;10544591;28;20051;-72
2022/09/28 14:59:08;;;;;;;;;;;;;;;10.22;84.57;98063.53;10526278;28;20094;-71
2022/09/28 15:04:12;;;;;;;1.80;0.77;;;;;;;10.25;82.55;98068.63;10544211;28;20423;-72
2022/09/28 15:09:32;;;;;;;2.88;0.50;;;;;;;10.28;82.71;98078.94;10544194;28;20047;-73
2022/09/28 15:15:03;;;;;;;0.82;0.50;;;;;;;10.27;82.90;98079.03;10525945;28;20040;-72
2022/09/28 15:20:35;;;;;;;1.13;0.50;;;;;;;9.90;85.29;98089.13;10543667;28;20044;-72
2022/09/28 15:25:37;;;;;;;0.80;0.80;;;;;;;10.10;79.35;98090.56;10541513;28;20056;-71
2022/09/28 15:30:39;;;;;;;0.77;0.60;;;;;;;9.97;81.64;98090.44;10542983;28;20135;-73
2022/09/28 15:35:45;;;;;;;0.95;0.90;;;;;;;9.82;82.53;98092.19;10543669;28;20037;-71
2022/09/28 15:40:47;;;;;;;0.80;0.80;;;;;;;9.96;79.69;98104.50;10543984;28;20036;-71
2022/09/28 15:46:03;;;;;;;1.52;1.00;;;;;;;9.81;82.49;98103.63;10542413;28;20040;-71
2022/09/28 15:51:10;;;;;;;2.08;1.30;;;;;;;9.78;83.76;98111.69;10524502;28;20475;-72
2022/09/28 15:56:12;;;;;;;;;;;;;;;9.76;83.22;98124.06;10523127;28;20136;-71
2022/09/28 16:01:24;;;;;;;1.95;1.10;;;;;;;9.86;81.79;98121.72;10523842;28;19927;-72
2022/09/28 16:06:26;;;;;;;1.40;1.20;;;;;;;9.92;81.06;98129.25;10541495;28;20040;-72
2022/09/28 16:11:36;;;;;;;2.05;1.15;;;;;;;9.77;83.29;98138.84;10542407;28;20054;-71
2022/09/28 16:16:45;;;;;;;1.45;1.35;;;;;;;9.89;82.61;98144.34;10524948;28;20065;-71
2022/09/28 16:21:54;;;;;;;4.30;1.67;;;;;;;9.57;87.12;98153.16;10507606;28;20043;-71
2022/09/28 16:27:00;;;;;;;1.42;1.33;;;;;;;9.74;86.11;98157.41;10524717;28;20086;-71
2022/09/28 16:32:23;;;;;;;5.78;1.70;;;;;;;9.86;85.05;98169.81;10540678;28;20126;-71
2022/09/28 16:37:32;;;;;;;1.00;0.90;;;;;;;9.82;85.52;98173.53;10541120;28;20516;-71
2022/09/28 16:42:35;;;;;;;1.63;1.52;;;;;;;9.74;86.76;98175.78;10540844;28;20044;-71
2022/09/28 16:47:38;;;;;;;1.17;1.08;;;;;;;9.67;87.32;98178.84;10522534;28;20497;-71
2022/09/28 16:58:03;;;;;;;1.75;1.58;;;;;;;9.62;88.83;98186.97;10547303;28;20089;-73
2022/09/28 17:03:31;;;;;;;2.35;1.70;;;;;;;9.63;89.87;98188.66;10547913;28;20519;-71
2022/09/28 17:08:34;;;;;;;1.92;1.65;;;;;;;9.45;92.13;98193.19;10527083;28;20138;-72
2022/09/28 17:13:36;;;;;;;1.83;1.70;;;;;;;9.55;90.72;98204.81;10530798;28;20048;-72
2022/09/28 17:18:38;;;;;;;2.53;1.75;;;;;;;9.52;92.75;98201.56;10530686;28;20051;-72
2022/09/28 17:23:41;;;;;;;2.75;1.70;;;;;;;9.52;92.32;98210.28;10548435;28;20044;-72
2022/09/28 17:28:43;;;;;;;1.98;1.77;;;;;;;9.63;91.77;98219.31;10529113;28;20119;-71
2022/09/28 17:33:45;;;;;;;2.45;2.25;;;;;;;9.56;92.32;98226.66;10529443;28;20071;-71
2022/09/28 17:38:48;;;;;;;4.13;2.67;;;;;;;9.55;93.13;98232.84;10547742;28;20119;-72
2022/09/28 17:43:50;;;;;;;3.50;3.17;;;;;;;9.51;92.82;98226.91;10547224;28;20062;-72
2022/09/28 17:48:54;;;;;;;3.08;2.83;;;;;;;9.35;93.79;98229.56;10541075;28;20036;-71
2022/09/28 17:53:57;;;;;;;3.17;2.88;;;;;;;9.29;93.08;98231.66;10509818;28;20044;-71
2022/09/28 17:59:03;;;;;;;2.92;2.72;;;;;;;9.16;94.52;98233.28;10525015;28;20040;-72
2022/09/28 18:04:07;;;;;;;3.00;2.60;;;;;;;8.94;95.69;98236.22;10504526;28;20505;-71
2022/09/28 18:09:14;;;;;;;3.78;3.08;;;;;;;8.59;98.42;98247.66;10504456;28;20153;-71
2022/09/28 18:14:16;;;;;;;4.68;2.80;;;;;;;8.49;100.00;98251.66;10545290;28;20046;-72
2022/09/28 18:19:18;;;;;;;3.10;2.90;;;;;;;8.67;97.69;98244.59;10545549;28;20098;-72
2022/09/28 18:24:19;;;;;;;3.45;3.15;;;;;;;8.20;100.00;98260.97;10544910;28;20054;-71
2022/09/28 18:29:21;;;;;;;4.20;3.22;;;;;;;8.37;100.00;98254.91;10545737;28;20460;-71
2022/09/28 18:34:23;;;;;;;3.90;3.60;;;;;;;8.15;100.00;98260.38;10544898;28;20044;-71
2022/09/28 18:39:25;;;;;;;4.32;3.92;;;;;;;7.89;100.00;98268.66;10546039;28;20051;-71
2022/09/28 18:44:27;;;;;;;4.85;4.18;;;;;;;7.91;100.00;98267.63;10511018;28;20553;-71
2022/09/28 18:49:30;;;;;;;5.40;4.75;;;;;;;8.02;100.00;98267.13;10545256;28;20046;-71
2022/09/28 18:54:32;;;;;;;4.72;4.32;;;;;;;8.14;100.00;98270.88;10545049;28;20115;-71
2022/09/28 18:59:33;;;;;;;5.53;5.07;;;;;;;8.26;100.00;98278.13;10544378;28;20040;-71
2022/09/28 19:04:35;;;;;;;4.75;4.35;;;;;;;8.17;100.00;98278.59;10526374;28;20048;-71
2022/09/28 19:09:39;;;;;;;5.05;4.07;;;;;;;8.09;100.00;98279.81;10544072;28;20044;-71
2022/09/28 19:14:41;;;;;;;4.32;3.92;;;;;;;8.02;100.00;98278.44;10508243;28;20055;-72
2022/09/28 19:19:42;;;;;;;3.80;3.50;;;;;;;7.70;100.00;98285.25;10543155;28;20067;-71
2022/09/28 19:24:44;;;;;;;4.35;3.78;;;;;;;7.51;100.00;98284.41;10542947;28;20046;-71
2022/09/28 19:29:45;;;;;;;4.40;4.00;;;;;;;7.32;100.00;98285.28;10525539;28;20122;-71
2022/09/28 19:34:47;;;;;;;4.22;3.92;;;;;;;7.21;100.00;98287.53;10542636;28;20144;-71
2022/09/28 19:39:49;;;;;;;4.35;3.97;;;;;;;7.03;100.00;98281.38;10524472;28;20056;-71
2022/09/28 19:44:50;;;;;;;4.60;4.20;;;;;;;6.98;100.00;98279.91;10542271;28;20055;-71
2022/09/28 19:49:52;;;;;;;3.92;3.63;;;;;;;6.93;100.00;98280.09;10523751;28;20485;-71
2022/09/28 19:54:57;;;;;;;4.50;4.20;;;;;;;6.99;100.00;98281.59;10541717;28;20074;-71
2022/09/28 19:59:59;;;;;;;3.60;3.30;;;;;;;6.88;100.00;98289.06;10541830;28;20044;-70
2022/09/28 20:05:06;;;;;;;4.28;3.88;;;;;;;6.75;100.00;98278.31;10542363;28;20047;-71
2022/09/28 20:10:10;;;;;;;4.10;3.80;;;;;;;6.68;100.00;98282.09;10541128;28;20043;-71
2022/09/28 20:15:12;;;;;;;4.03;3.72;;;;;;;6.94;100.00;98297.47;10541062;28;20051;-72
2022/09/28 20:20:14;;;;;;;4.90;4.50;;;;;;;6.82;100.00;98308.47;10523901;28;20062;-73
2022/09/28 20:25:15;;;;;;;4.07;3.78;;;;;;;6.57;100.00;98314.75;10540925;28;20048;-72
2022/09/28 20:30:17;;;;;;;4.18;3.85;;;;;;;6.43;100.00;98316.25;10542412;28;20044;-72
2022/09/28 20:35:19;;;;;;;6.03;4.35;;;;;;;6.32;100.00;98327.13;10541410;28;20043;-71
2022/09/28 20:40:38;;;;;;;4.43;4.03;;;;;;;6.21;100.00;98332.81;10551802;22;20127;-71
2022/09/28 20:45:41;;;;;;;4.70;4.35;;;;;;;6.12;100.00;98330.59;10500597;28;20443;-70
2022/09/28 20:50:43;;;;;;;5.38;4.68;;;;;;;6.03;100.00;98334.41;10543625;28;20036;-71
2022/09/28 20:55:45;;;;;;;4.85;4.35;;;;;;;5.92;100.00;98341.81;10524445;28;20040;-71
2022/09/28 21:00:46;;;;;;;5.47;4.97;;;;;;;5.88;100.00;98349.78;10542932;28;20054;-71
2022/09/28 21:05:49;;;;;;;5.35;4.95;;;;;;;5.84;100.00;98349.06;10525656;28;20044;-70
2022/09/28 21:10:54;;;;;;;5.57;5.07;;;;;;;5.81;100.00;98360.47;10542286;28;20044;-70
2022/09/28 21:15:59;;;;;;;5.15;4.75;;;;;;;5.77;100.00;98365.88;10541635;28;20197;-71
2022/09/28 21:21:05;;;;;;;4.45;4.05;;;;;;;5.77;100.00;98373.69;10543748;28;20040;-72
2022/09/28 21:26:09;;;;;;;4.78;4.47;;;;;;;5.70;100.00;98372.22;10541724;28;20061;-71
2022/09/28 21:31:12;;;;;;;5.15;4.85;;;;;;;5.65;100.00;98379.38;10542469;28;20044;-71
2022/09/28 21:36:14;;;;;;;9.15;5.00;;;;;;;5.81;100.00;98372.66;10540794;28;20072;-71
2022/09/28 21:41:16;;;;;;;4.38;3.97;;;;;;;6.15;100.00;98381.78;10547280;28;20047;-71
2022/09/28 21:46:18;;;;;;;3.60;3.30;;;;;;;6.45;100.00;98384.91;10546851;28;20504;-70
2022/09/28 21:51:20;;;;;;;3.55;3.03;;;;;;;6.45;100.00;98390.97;10547101;28;20051;-71
2022/09/28 21:56:22;;;;;;;4.60;3.50;;;;;;;6.28;100.00;98396.03;10546694;28;20451;-70
2022/09/28 22:01:24;;;;;;;4.38;3.33;;;;;;;6.04;100.00;98393.50;10529107;28;20105;-71
2022/09/28 22:06:27;;;;;;;3.00;2.80;;;;;;;5.82;100.00;98392.59;10546861;28;20067;-70
2022/09/28 22:11:28;;;;;;;4.28;3.47;;;;;;;5.70;100.00;98385.25;10546226;28;20044;-71
2022/09/28 22:16:30;;;;;;;4.25;3.75;;;;;;;5.56;100.00;98389.22;10546450;28;20354;-71
2022/09/28 22:21:33;;;;;;;4.05;3.75;;;;;;;5.61;100.00;98390.81;10545336;28;20081;-71
2022/09/28 22:26:36;;;;;;;4.05;3.75;;;;;;;5.44;100.00;98400.09;10527602;28;20402;-71
2022/09/28 22:31:39;;;;;;;4.45;3.67;;;;;;;5.29;100.00;98398.06;10527197;28;20051;-71
2022/09/28 22:36:41;;;;;;;4.47;4.07;;;;;;;5.17;100.00;98404.56;10544857;28;20463;-71
2022/09/28 22:41:42;;;;;;;4.85;4.45;;;;;;;5.15;100.00;98410.75;10544833;28;20066;-71
2022/09/28 22:46:44;;;;;;;4.63;4.25;;;;;;;5.26;100.00;98419.00;10544373;28;20043;-71
2022/09/28 22:51:46;;;;;;;4.90;4.50;;;;;;;5.76;100.00;98405.88;10525487;28;20066;-70
2022/09/28 22:56:48;;;;;;;4.35;3.92;;;;;;;5.66;100.00;98412.34;10544548;28;20043;-71
2022/09/28 23:01:49;;;;;;;4.22;3.83;;;;;;;5.26;100.00;98416.41;10525985;28;20062;-71
2022/09/28 23:06:51;;;;;;;4.57;4.28;;;;;;;5.02;100.00;98423.34;10526571;28;20036;-71
2022/09/28 23:11:53;;;;;;;5.07;4.43;;;;;;;4.90;100.00;98424.63;10544231;28;20052;-70
2022/09/28 23:16:54;;;;;;;5.55;5.05;;;;;;;4.84;100.00;98432.66;10543486;28;20043;-71
2022/09/28 23:21:58;;;;;;;4.80;4.32;;;;;;;5.37;100.00;98423.84;10543513;28;20048;-71
2022/09/28 23:26:59;;;;;;;5.60;5.13;;;;;;;5.18;100.00;98431.47;10525510;28;20577;-71
2022/09/28 23:32:01;;;;;;;4.85;4.50;;;;;;;5.00;100.00;98426.03;10525109;28;20416;-71
2022/09/28 23:37:02;;;;;;;6.38;5.88;;;;;;;5.07;100.00;98434.47;10542847;28;20075;-71
2022/09/28 23:42:04;;;;;;;5.47;5.07;;;;;;;5.32;100.00;98437.91;10542292;28;20044;-71
2022/09/28 23:47:06;;;;;;;5.40;4.88;;;;;;;5.15;100.00;98432.44;10542126;28;20040;-70
2022/09/28 23:52:07;;;;;;;5.60;5.15;;;;;;;5.08;100.00;98436.16;10541988;28;20050;-71
2022/09/28 23:57:09;;;;;;;6.10;5.47;;;;;;;4.85;100.00;98446.53;10542118;28;20036;-71
